Terminal Aerodrome Forecast
Issued by NWS Wakefield, VA

Home | Current Version | Previous Version | Text Only | Print | Product List | Glossary On
Versions: 1 2 3 4 5 6 7 8 9 10 11 12 13 14 15 16 17 18 19 20 21 22 23 24 25
414
FTUS41 KAKQ 251723
TAFECG
TAF
KECG 251723Z 2518/2618 05012KT P6SM BKN015 OVC020
     FM252300 04013G20KT P6SM OVC008
     FM261200 03015G25KT P6SM OVC008
     FM261500 03018G28KT P6SM BKN015=

USA.gov is the U.S. government's official web portal to all federal, state and local government web resources and services.